Punta de Agua, Argentina
Current Conditions -  °F | °C
As of 12:00 PM on Wednesday 26 Nov 2014 (Local Time) from SCAT Reporting Station
Broken Clouds Broken Clouds  
Wind Chill: 61°   Ceiling: 1500
Heat Index: 61°   Visibility: 6mi
Dew Point: 50°   Wind: 9mph
Humidity: 68%   Direction: 320°NW
Pressure: 30.03"   Gusts: NA
Location:  28.6°S, 68.65°W
Report Text: SCAT 261500Z 32008KT 260V360 9999 BKN015 16/10 Q1017
Loading
Personal Weather Stations






























Interactive Weather Map New forecast layout! Learn more

10-Day Weather Forecast

Advertisements
Track Severe Weather on mobile